Tres Piedras, New Mexico
Current Conditions -  °F | °C
As of 4:55 AM on Wednesday 28 Jan 2015 (Local Time) from KSKX Reporting Station
Clear Clear  
Wind Chill: 22°   Ceiling: Unl
Heat Index: 28°   Visibility: 10mi
Dew Point: 25°   Wind: 6mph
Humidity: 86%   Direction: 350°N
Pressure: 30.28"   Gusts: NA
Location:  36.65°N, 105.96°W
Report Text: KSKX 281155Z AUTO 35005KT 10SM CLR M02/M04 A3028 RMK AO1 10020 21020 52003
Loading
Personal Weather Stations






























Interactive Weather Map New forecast layout! Learn more

10-Day Weather Forecast

Advertisements
Track Severe Weather on mobile